createdAt,value
2022-08-22T07:11:21.801Z,16.00
2022-08-22T07:14:45.626Z,13.33
2022-08-22T07:17:51.615Z,14.00
2022-08-22T07:21:04.395Z,14.00
2022-08-22T07:24:07.722Z,17.33
2022-08-22T07:27:52.546Z,16.67
2022-08-22T07:30:57.839Z,12.67
2022-08-22T07:34:40.620Z,15.67
2022-08-22T07:37:52.099Z,16.67
2022-08-22T07:41:10.903Z,18.33
2022-08-22T07:44:23.461Z,18.33
2022-08-22T07:47:34.839Z,17.67
2022-08-22T07:50:53.430Z,17.00
2022-08-22T07:54:02.622Z,17.33
2022-08-22T07:57:15.360Z,15.00
2022-08-22T08:00:20.457Z,16.33
2022-08-22T08:03:25.916Z,17.67
2022-08-22T08:06:32.046Z,16.67
2022-08-22T08:09:39.238Z,17.33
2022-08-22T08:12:52.701Z,16.67
2022-08-22T08:16:08.364Z,17.00
2022-08-22T08:19:12.312Z,17.33
2022-08-22T08:22:19.140Z,16.33
2022-08-22T08:25:27.652Z,16.67
2022-08-22T08:28:37.592Z,15.67
2022-08-22T08:31:44.717Z,15.00
2022-08-22T08:34:47.343Z,15.00
2022-08-22T08:37:59.271Z,15.67
2022-08-22T08:41:22.700Z,15.67
2022-08-22T08:44:49.945Z,16.00
2022-08-22T08:48:27.324Z,15.67
2022-08-22T08:52:10.277Z,12.33
2022-08-22T08:55:31.037Z,15.33
2022-08-22T08:58:41.562Z,16.00
2022-08-22T09:02:06.114Z,15.00
2022-08-22T09:05:19.523Z,14.00
2022-08-22T09:08:44.847Z,18.00
2022-08-22T09:12:24.874Z,10.00
2022-08-22T09:16:04.506Z,15.33
2022-08-22T09:19:27.224Z,22.67
2022-08-22T09:22:54.048Z,15.33
2022-08-22T09:26:17.257Z,12.00
2022-08-22T09:29:35.893Z,12.67
2022-08-22T09:32:57.359Z,20.00
2022-08-22T09:36:05.103Z,15.67
2022-08-22T09:39:13.803Z,15.00
2022-08-22T09:42:50.298Z,19.33
2022-08-22T09:46:15.542Z,15.00
2022-08-22T09:49:26.255Z,10.00
2022-08-22T09:53:03.173Z,13.25
2022-08-22T09:56:11.596Z,10.50
2022-08-22T09:59:40.636Z,13.00
2022-08-22T10:03:01.554Z,13.50
2022-08-22T10:06:15.730Z,13.33
2022-08-22T10:09:31.497Z,14.00
2022-08-22T10:12:44.796Z,12.50
2022-08-22T10:16:16.411Z,14.00
2022-08-22T10:19:34.246Z,15.33
2022-08-22T10:22:47.459Z,11.00
2022-08-22T10:25:54.259Z,13.00
2022-08-22T10:29:09.245Z,13.33
2022-08-22T10:32:47.933Z,15.00
2022-08-22T10:36:05.304Z,12.00
2022-08-22T10:39:12.011Z,12.00
2022-08-22T10:42:18.654Z,15.00
2022-08-22T10:45:36.802Z,13.00
2022-08-22T10:48:42.428Z,13.00
2022-08-22T10:51:54.074Z,12.00
2022-08-22T10:55:00.856Z,12.00
2022-08-22T10:58:11.656Z,11.00
2022-08-22T11:01:37.823Z,12.00
2022-08-22T11:05:20.172Z,14.67
2022-08-22T11:08:45.999Z,14.00
2022-08-22T11:12:16.593Z,12.67
2022-08-22T11:15:57.481Z,11.00
2022-08-22T11:19:15.202Z,12.33
2022-08-22T11:22:48.733Z,12.00
2022-08-22T11:26:30.040Z,10.67
2022-08-22T11:29:55.057Z,10.00
2022-08-22T11:33:17.999Z,12.00
2022-08-22T11:36:26.351Z,12.00
2022-08-22T11:40:08.094Z,10.00
2022-08-22T11:43:20.037Z,9.00
2022-08-22T11:46:31.256Z,10.00
2022-08-22T11:49:33.524Z,10.00
2022-08-22T11:53:01.684Z,9.00
2022-08-22T11:56:19.376Z,9.00
2022-08-22T11:59:30.187Z,8.00
2022-08-22T12:03:02.763Z,9.00
2022-08-22T12:06:50.126Z,9.67
2022-08-22T12:09:58.787Z,11.00
2022-08-22T12:13:14.573Z,10.00
2022-08-22T12:16:47.324Z,11.33
2022-08-22T12:20:16.050Z,10.33
2022-08-22T12:23:43.639Z,11.00
2022-08-22T12:27:13.015Z,10.33
2022-08-22T12:30:32.376Z,7.00
2022-08-22T12:34:12.460Z,10.33
2022-08-22T12:37:24.376Z,10.67
2022-08-22T12:40:56.262Z,8.67
2022-08-22T12:44:20.416Z,8.00
2022-08-22T12:47:36.230Z,9.00
2022-08-22T12:51:17.211Z,11.00
2022-08-22T12:54:37.537Z,10.33
2022-08-22T12:58:06.868Z,10.00
2022-08-22T13:01:11.138Z,9.00
2022-08-22T13:04:33.240Z,9.67
2022-08-22T13:07:38.450Z,9.67
2022-08-22T13:10:50.003Z,9.00
2022-08-22T13:13:56.462Z,10.00
2022-08-22T13:17:15.233Z,9.33
2022-08-22T13:20:37.870Z,9.00
2022-08-22T13:23:53.276Z,11.33
2022-08-22T13:27:00.431Z,10.00
2022-08-22T13:30:08.052Z,9.00
2022-08-22T13:33:24.902Z,9.00
2022-08-22T13:36:28.096Z,13.00
2022-08-22T13:39:39.867Z,9.00
2022-08-22T13:42:48.195Z,11.33
2022-08-22T13:45:55.776Z,10.33
2022-08-22T13:49:01.283Z,10.00
2022-08-22T13:52:30.597Z,10.00
2022-08-22T13:55:43.076Z,10.33
2022-08-22T13:58:48.430Z,10.00
2022-08-22T14:02:07.192Z,10.00
2022-08-22T14:05:16.613Z,10.00
2022-08-22T14:08:31.707Z,9.33
2022-08-22T14:11:44.834Z,9.67
2022-08-22T14:14:54.958Z,11.00
2022-08-22T14:18:12.212Z,10.00
2022-08-22T14:21:54.083Z,11.00
2022-08-22T14:25:22.383Z,13.00
2022-08-22T14:28:30.961Z,10.67
2022-08-22T14:31:34.112Z,8.00
2022-08-22T14:34:40.323Z,11.33
2022-08-22T14:37:51.576Z,9.00
2022-08-22T14:40:57.979Z,11.00
2022-08-22T14:44:17.530Z,10.00
2022-08-22T14:47:54.130Z,10.67
2022-08-22T14:50:55.131Z,10.00
2022-08-22T14:54:21.443Z,10.00
2022-08-22T14:57:24.360Z,10.25
2022-08-22T15:00:38.909Z,10.67
2022-08-22T15:03:42.552Z,11.50
2022-08-22T15:06:57.897Z,9.00
2022-08-22T15:10:20.628Z,12.00
2022-08-22T15:13:25.195Z,10.00
2022-08-22T15:16:41.808Z,10.00
2022-08-22T15:19:47.297Z,9.67
2022-08-22T15:22:57.660Z,9.67
2022-08-22T15:26:03.884Z,9.33
2022-08-22T15:29:17.805Z,10.00
2022-08-22T15:32:31.327Z,9.33
2022-08-22T15:35:39.026Z,8.67
2022-08-22T15:38:47.955Z,10.00
2022-08-22T15:41:50.964Z,7.67
2022-08-22T15:44:55.712Z,10.00
2022-08-22T15:48:00.140Z,11.00
2022-08-22T15:51:33.421Z,7.67
2022-08-22T15:54:42.668Z,11.67
2022-08-22T15:58:13.083Z,10.00
2022-08-22T16:01:22.578Z,10.33
2022-08-22T16:04:49.850Z,11.67
2022-08-22T16:07:58.489Z,10.00
2022-08-22T16:11:03.667Z,9.67
2022-08-22T16:14:45.258Z,10.67
2022-08-22T16:17:53.322Z,9.00
2022-08-22T16:21:28.057Z,11.00
2022-08-22T16:24:38.022Z,11.00
2022-08-22T16:27:52.070Z,10.00
2022-08-22T16:30:56.140Z,10.00
2022-08-22T16:34:18.399Z,9.00
2022-08-22T16:37:42.604Z,10.50
2022-08-22T16:40:47.597Z,10.00
2022-08-22T16:44:16.630Z,10.00
2022-08-22T16:47:41.739Z,10.33
2022-08-22T16:50:44.023Z,11.67
2022-08-22T16:53:49.101Z,10.33
2022-08-22T16:57:23.567Z,11.33
2022-08-22T17:00:34.960Z,10.00
2022-08-22T17:04:07.779Z,10.33
2022-08-22T17:07:37.225Z,11.33
2022-08-22T17:10:39.153Z,10.67
2022-08-22T17:13:48.354Z,12.00
2022-08-22T17:17:12.077Z,12.67
2022-08-22T17:20:32.724Z,11.33
2022-08-22T17:24:00.865Z,12.00
2022-08-22T17:27:12.401Z,11.33
2022-08-22T17:30:29.327Z,12.33
2022-08-22T17:34:00.661Z,12.00
2022-08-22T17:37:07.842Z,13.00
2022-08-22T17:40:13.928Z,13.67
2022-08-22T17:43:48.779Z,11.67
2022-08-22T17:47:18.921Z,13.33
2022-08-22T17:50:54.136Z,13.67
2022-08-22T17:54:20.061Z,13.67
2022-08-22T17:57:35.255Z,12.33
2022-08-22T18:00:47.885Z,12.33
2022-08-22T18:03:57.174Z,13.33
2022-08-22T18:07:28.770Z,13.67
2022-08-22T18:10:40.113Z,13.33
2022-08-22T18:13:56.931Z,13.33
2022-08-22T18:17:00.840Z,13.00
2022-08-22T18:20:23.000Z,12.00
2022-08-22T18:23:45.616Z,14.00
2022-08-22T18:26:58.415Z,14.00
2022-08-22T18:30:21.487Z,12.33
2022-08-22T18:33:48.881Z,13.67
2022-08-22T18:37:11.836Z,13.00
2022-08-22T18:40:31.044Z,12.67
2022-08-22T18:43:36.193Z,11.67
2022-08-22T18:46:38.378Z,13.00
2022-08-22T18:49:44.448Z,12.33
2022-08-22T18:52:46.646Z,13.33
2022-08-22T18:55:58.336Z,11.33
2022-08-22T18:59:09.055Z,13.33
2022-08-22T19:02:55.588Z,14.33
2022-08-22T19:06:32.295Z,12.33
2022-08-22T19:10:01.275Z,13.00
2022-08-22T19:13:10.694Z,13.67
2022-08-22T19:16:32.223Z,12.67
2022-08-22T19:20:35.175Z,14.00
2022-08-22T19:23:43.639Z,14.33
2022-08-22T19:26:48.405Z,13.00
2022-08-22T19:29:55.120Z,5.00
2022-08-22T19:33:03.755Z,13.00
2022-08-22T19:36:10.875Z,13.67
2022-08-22T19:39:50.360Z,12.33
2022-08-22T19:43:16.642Z,15.00
2022-08-22T19:46:38.824Z,11.00
2022-08-22T19:50:05.915Z,13.67
2022-08-22T19:53:19.411Z,13.33
2022-08-22T19:56:49.719Z,14.00
2022-08-22T20:00:17.074Z,13.00
2022-08-22T20:03:44.887Z,14.00
2022-08-22T20:07:14.869Z,14.33
2022-08-22T20:10:30.768Z,14.33
2022-08-22T20:13:34.912Z,14.67
2022-08-22T20:17:14.736Z,12.33
2022-08-22T20:20:27.922Z,14.00
2022-08-22T20:23:32.753Z,14.00
2022-08-22T20:26:47.466Z,14.67
2022-08-22T20:30:15.490Z,12.00
2022-08-22T20:33:29.101Z,14.00
2022-08-22T20:36:31.505Z,13.00
2022-08-22T20:39:47.515Z,14.00
2022-08-22T20:43:10.574Z,14.00
2022-08-22T20:47:01.567Z,13.00
2022-08-22T20:50:12.053Z,13.00
2022-08-22T20:53:20.627Z,14.00
2022-08-22T20:56:53.599Z,15.00
2022-08-22T21:00:06.504Z,13.00
2022-08-22T21:03:21.611Z,14.00
2022-08-22T21:06:42.026Z,13.33
2022-08-22T21:10:20.156Z,15.33
2022-08-22T21:13:30.364Z,15.00
2022-08-22T21:16:33.547Z,15.00
2022-08-22T21:19:35.748Z,15.33
2022-08-22T21:22:38.255Z,14.00
2022-08-22T21:26:08.515Z,16.00
2022-08-22T21:29:10.581Z,13.33
2022-08-22T21:32:32.148Z,14.00
2022-08-22T21:35:34.442Z,14.33
2022-08-22T21:38:37.497Z,14.00
2022-08-22T21:42:03.088Z,12.67
2022-08-22T21:45:10.372Z,11.00
2022-08-22T21:48:35.928Z,14.33
2022-08-22T21:51:45.625Z,15.00
2022-08-22T21:54:47.770Z,14.00
2022-08-22T21:58:12.553Z,14.33
2022-08-22T22:01:33.687Z,14.67
2022-08-22T22:04:35.942Z,14.67
2022-08-22T22:07:42.404Z,14.67
2022-08-22T22:10:46.536Z,15.33
2022-08-22T22:13:49.038Z,17.50
2022-08-22T22:16:51.313Z,14.00
2022-08-22T22:19:54.157Z,15.33
2022-08-22T22:22:56.538Z,16.00
2022-08-22T22:26:01.786Z,14.67
2022-08-22T22:29:04.332Z,15.50
2022-08-22T22:32:07.496Z,15.00
2022-08-22T22:35:09.888Z,15.75
2022-08-22T22:38:19.397Z,16.00
2022-08-22T22:41:25.646Z,16.00
2022-08-22T22:44:27.948Z,14.25
2022-08-22T22:47:31.759Z,15.75
2022-08-22T22:50:37.887Z,15.00
2022-08-22T22:53:42.778Z,15.00
2022-08-22T22:56:47.903Z,15.25
2022-08-22T22:59:50.527Z,15.00
2022-08-22T23:02:53.228Z,16.25
2022-08-22T23:05:55.409Z,16.50
2022-08-22T23:08:58.221Z,18.50
2022-08-22T23:12:02.889Z,17.00
2022-08-22T23:15:06.603Z,15.75
2022-08-22T23:18:08.936Z,16.00
2022-08-22T23:21:20.155Z,16.25
2022-08-22T23:24:23.234Z,17.00
2022-08-22T23:27:25.505Z,16.00
2022-08-22T23:30:27.944Z,13.25
2022-08-22T23:33:30.023Z,15.25
2022-08-22T23:36:32.863Z,15.00
2022-08-22T23:39:36.039Z,12.75
2022-08-22T23:42:38.544Z,14.00
2022-08-22T23:45:43.455Z,14.25
2022-08-22T23:48:46.618Z,15.50
2022-08-22T23:51:50.044Z,16.00
2022-08-22T23:54:54.627Z,14.00
2022-08-22T23:57:58.129Z,16.25
